createdAt,value
2022-09-06T00:02:34.088Z,51.90
2022-09-06T00:05:21.041Z,50.80
2022-09-06T00:08:01.158Z,51.10
2022-09-06T00:10:49.014Z,51.10
2022-09-06T00:13:29.142Z,51.50
2022-09-06T00:16:22.073Z,51.50
2022-09-06T00:19:10.014Z,51.60
2022-09-06T00:21:57.088Z,51.40
2022-09-06T00:24:37.001Z,51.50
2022-09-06T00:27:24.097Z,51.50
2022-09-06T00:30:04.006Z,51.70
2022-09-06T00:32:51.090Z,51.60
2022-09-06T00:35:32.045Z,52.70
2022-09-06T00:38:19.081Z,51.90
2022-09-06T00:40:59.014Z,52.10
2022-09-06T00:43:39.938Z,52.10
2022-09-06T00:46:37.103Z,52.30
2022-09-06T00:49:36.013Z,52.30
2022-09-06T00:52:19.780Z,52.20
2022-09-06T00:55:07.017Z,52.40
2022-09-06T00:57:50.882Z,52.70
2022-09-06T01:00:38.024Z,52.70
2022-09-06T01:03:31.996Z,53.00
2022-09-06T01:06:28.027Z,53.30
2022-09-06T01:09:36.101Z,53.30
2022-09-06T01:12:39.026Z,53.30
2022-09-06T01:15:38.107Z,53.30
2022-09-06T01:19:01.029Z,53.50
2022-09-06T01:21:44.067Z,53.70
2022-09-06T01:24:40.046Z,53.70
2022-09-06T01:27:42.040Z,54.00
2022-09-06T01:30:23.103Z,54.00
2022-09-06T01:33:30.032Z,53.90
2022-09-06T01:36:24.022Z,53.90
2022-09-06T01:39:04.097Z,54.00
2022-09-06T01:41:51.018Z,53.90
2022-09-06T01:44:41.045Z,54.00
2022-09-06T01:47:31.029Z,53.90
2022-09-06T01:50:27.043Z,54.00
2022-09-06T01:53:47.087Z,53.90
2022-09-06T01:56:38.050Z,54.10
2022-09-06T01:59:27.482Z,54.00
2022-09-06T02:02:22.070Z,54.10
2022-09-06T02:05:20.033Z,54.30
2022-09-06T02:08:13.028Z,54.20
2022-09-06T02:11:07.705Z,54.20
2022-09-06T02:14:20.021Z,54.30
2022-09-06T02:17:02.939Z,54.40
2022-09-06T02:20:00.013Z,54.50
2022-09-06T02:22:51.045Z,54.60
2022-09-06T02:25:50.042Z,54.70
2022-09-06T02:28:37.047Z,54.60
2022-09-06T02:31:32.058Z,54.60
2022-09-06T02:34:23.084Z,54.50
2022-09-06T02:37:04.037Z,54.40
2022-09-06T02:39:51.109Z,54.30
2022-09-06T02:42:32.050Z,54.20
2022-09-06T02:45:19.100Z,54.10
2022-09-06T02:47:59.017Z,54.10
2022-09-06T02:50:39.517Z,54.10
2022-09-06T02:53:27.029Z,54.20
2022-09-06T02:56:14.149Z,54.30
2022-09-06T02:58:54.038Z,54.40
2022-09-06T03:01:34.770Z,54.40
2022-09-06T03:04:21.038Z,54.60
2022-09-06T03:07:08.082Z,54.70
2022-09-06T03:09:48.039Z,54.90
2022-09-06T03:12:35.041Z,55.00
2022-09-06T03:15:16.096Z,55.10
2022-09-06T03:18:07.037Z,55.20
2022-09-06T03:20:47.159Z,55.30
2022-09-06T03:23:35.045Z,55.20
2022-09-06T03:26:22.033Z,55.30
2022-09-06T03:29:09.097Z,55.40
2022-09-06T03:31:49.040Z,55.50
2022-09-06T03:34:29.546Z,55.50
2022-09-06T03:37:16.049Z,55.90
2022-09-06T03:40:03.082Z,56.00
2022-09-06T03:42:43.148Z,56.30
2022-09-06T03:45:30.086Z,56.20
2022-09-06T03:48:10.094Z,56.30
2022-09-06T03:51:01.042Z,56.30
2022-09-06T03:53:41.317Z,56.40
2022-09-06T03:56:28.045Z,56.50
2022-09-06T03:59:08.152Z,56.60
2022-09-06T04:01:55.096Z,56.60
2022-09-06T04:04:42.094Z,56.70
2022-09-06T04:07:22.046Z,56.90
2022-09-06T04:10:10.048Z,56.90
2022-09-06T04:12:51.101Z,56.90
2022-09-06T04:15:38.050Z,56.90
2022-09-06T04:18:18.126Z,57.00
2022-09-06T04:21:05.056Z,57.00
2022-09-06T04:23:45.090Z,58.10
2022-09-06T04:26:32.054Z,57.00
2022-09-06T04:29:12.118Z,57.10
2022-09-06T04:31:59.079Z,57.00
2022-09-06T04:34:46.062Z,57.10
2022-09-06T04:37:33.086Z,57.00
2022-09-06T04:40:14.069Z,57.00
2022-09-06T04:43:01.126Z,57.00
2022-09-06T04:45:41.096Z,56.90
2022-09-06T04:48:28.223Z,56.70
2022-09-06T04:51:08.047Z,56.70
2022-09-06T04:53:55.137Z,56.50
2022-09-06T04:56:35.045Z,56.30
2022-09-06T04:59:15.532Z,56.10
2022-09-06T05:02:02.123Z,56.10
2022-09-06T05:04:49.121Z,56.00
2022-09-06T05:07:29.061Z,55.90
2022-09-06T05:10:16.053Z,55.80
2022-09-06T05:13:01.122Z,55.60
2022-09-06T05:15:48.060Z,55.40
2022-09-06T05:18:28.209Z,55.40
2022-09-06T05:21:15.061Z,56.30
2022-09-06T05:23:58.456Z,55.20
2022-09-06T05:26:45.090Z,55.10
2022-09-06T05:29:28.761Z,55.00
2022-09-06T05:32:17.066Z,55.10
2022-09-06T05:34:57.118Z,55.00
2022-09-06T05:37:44.073Z,55.00
2022-09-06T05:40:24.141Z,55.10
2022-09-06T05:43:11.071Z,55.20
2022-09-06T05:45:51.172Z,55.30
2022-09-06T05:48:38.155Z,55.40
2022-09-06T05:51:27.076Z,55.60
2022-09-06T05:54:14.115Z,55.60
2022-09-06T05:56:54.072Z,55.60
2022-09-06T05:59:41.076Z,55.70
2022-09-06T06:02:36.118Z,55.80
2022-09-06T06:05:23.073Z,55.80
2022-09-06T06:08:10.118Z,55.90
2022-09-06T06:10:50.571Z,55.90
2022-09-06T06:13:38.065Z,55.90
2022-09-06T06:16:20.662Z,55.90
2022-09-06T06:19:07.071Z,55.90
2022-09-06T06:21:55.809Z,55.80
2022-09-06T06:24:35.081Z,55.80
2022-09-06T06:27:22.109Z,55.80
2022-09-06T06:30:02.074Z,56.00
2022-09-06T06:32:42.535Z,55.90
2022-09-06T06:35:29.075Z,55.80
2022-09-06T06:38:16.073Z,55.70
2022-09-06T06:41:06.528Z,55.30
2022-09-06T06:43:54.071Z,54.90
2022-09-06T06:46:43.068Z,54.60
2022-09-06T06:49:31.089Z,54.40
2022-09-06T06:52:11.158Z,54.20
2022-09-06T06:54:58.072Z,53.90
2022-09-06T06:57:38.162Z,53.40
2022-09-06T07:00:28.166Z,53.00
2022-09-06T07:03:23.090Z,52.50
2022-09-06T07:06:11.672Z,52.00
2022-09-06T07:09:00.096Z,51.20
2022-09-06T07:11:47.076Z,50.50
2022-09-06T07:14:34.073Z,49.50
2022-09-06T07:17:21.138Z,48.70
2022-09-06T07:20:16.732Z,47.90
2022-09-06T07:26:11.082Z,46.50
2022-09-06T07:29:10.092Z,46.00
2022-09-06T07:32:13.432Z,45.40
2022-09-06T07:34:53.202Z,44.90
2022-09-06T07:37:40.079Z,44.50
2022-09-06T07:40:20.141Z,43.90
2022-09-06T07:43:07.107Z,43.70
2022-09-06T07:45:47.554Z,43.10
2022-09-06T07:48:38.093Z,42.70
2022-09-06T07:51:34.101Z,42.30
2022-09-06T07:54:36.365Z,41.80
2022-09-06T07:57:16.139Z,41.30
2022-09-06T08:00:03.069Z,42.00
2022-09-06T08:02:52.082Z,40.50
2022-09-06T08:11:46.088Z,39.50
2022-09-06T08:14:26.164Z,39.20
2022-09-06T08:17:13.119Z,38.90
2022-09-06T08:19:53.194Z,38.50
2022-09-06T08:22:40.107Z,38.40
2022-09-06T08:25:20.356Z,38.10
2022-09-06T08:28:07.122Z,37.80
2022-09-06T08:30:54.099Z,37.70
2022-09-06T08:33:42.179Z,37.40
2022-09-06T08:36:22.102Z,37.10
2022-09-06T08:39:12.153Z,37.00
2022-09-06T08:42:09.119Z,36.70
2022-09-06T08:45:02.228Z,36.50
2022-09-06T08:47:42.118Z,36.40
2022-09-06T08:50:30.187Z,36.20
2022-09-06T08:53:24.125Z,36.00
2022-09-06T08:56:30.168Z,35.90
2022-09-06T08:59:21.121Z,35.90
2022-09-06T09:02:14.780Z,35.60
2022-09-06T09:05:11.101Z,35.50
2022-09-06T09:08:27.293Z,35.30
2022-09-06T09:11:32.105Z,35.20
2022-09-06T09:14:20.199Z,35.20
2022-09-06T09:17:13.114Z,35.10
2022-09-06T09:20:00.189Z,35.10
2022-09-06T09:22:48.134Z,34.90
2022-09-06T09:25:30.186Z,34.90
2022-09-06T09:28:24.175Z,34.80
2022-09-06T09:31:11.168Z,34.80
2022-09-06T09:33:52.360Z,34.80
2022-09-06T09:36:39.135Z,34.70
2022-09-06T09:39:26.242Z,34.60
2022-09-06T09:42:06.123Z,34.60
2022-09-06T09:44:53.228Z,34.50
2022-09-06T09:47:38.113Z,34.50
2022-09-06T09:50:43.115Z,34.30
2022-09-06T09:53:26.969Z,34.50
2022-09-06T09:56:13.132Z,34.30
2022-09-06T09:58:53.680Z,34.40
2022-09-06T10:01:41.125Z,34.50
2022-09-06T10:07:34.117Z,34.70
2022-09-06T10:10:20.185Z,34.60
2022-09-06T10:13:25.127Z,34.60
2022-09-06T10:16:07.245Z,34.60
2022-09-06T10:18:59.129Z,34.50
2022-09-06T10:21:39.194Z,35.50
2022-09-06T10:24:51.144Z,34.60
2022-09-06T10:27:36.099Z,34.80
2022-09-06T10:30:26.142Z,34.60
2022-09-06T10:33:45.129Z,34.60
2022-09-06T10:37:09.191Z,34.70
2022-09-06T10:40:02.202Z,34.70
2022-09-06T10:42:54.087Z,34.80
2022-09-06T10:45:45.136Z,34.70
2022-09-06T10:48:52.132Z,34.90
2022-09-06T10:51:32.230Z,35.10
2022-09-06T10:54:27.141Z,36.10
2022-09-06T11:00:23.642Z,35.50
2022-09-06T11:06:32.144Z,35.60
2022-09-06T11:09:36.218Z,35.50
2022-09-06T11:12:36.154Z,35.60
2022-09-06T11:15:20.260Z,35.60
2022-09-06T11:18:25.199Z,35.60
2022-09-06T11:21:31.267Z,35.70
2022-09-06T11:24:33.170Z,35.70
2022-09-06T11:27:34.252Z,35.50
2022-09-06T11:30:23.166Z,35.80
2022-09-06T11:33:31.361Z,36.00
2022-09-06T11:36:41.157Z,36.20
2022-09-06T11:43:09.160Z,36.30
2022-09-06T11:46:03.229Z,36.80
2022-09-06T11:49:12.219Z,36.70
2022-09-06T11:51:53.149Z,36.90
2022-09-06T11:54:49.185Z,36.70
2022-09-06T11:57:30.158Z,37.00
2022-09-06T12:00:20.238Z,36.70
2022-09-06T12:06:26.165Z,36.80
2022-09-06T12:09:07.205Z,37.00
2022-09-06T12:11:55.162Z,37.00
2022-09-06T12:14:42.164Z,38.10
2022-09-06T12:17:31.163Z,37.20
2022-09-06T12:20:19.149Z,37.30
2022-09-06T12:22:59.734Z,37.40
2022-09-06T12:25:49.175Z,37.40
2022-09-06T12:28:56.610Z,37.60
2022-09-06T12:32:07.160Z,37.80
2022-09-06T12:38:06.849Z,37.80
2022-09-06T12:40:58.343Z,37.90
2022-09-06T12:43:38.229Z,38.00
2022-09-06T12:46:25.181Z,38.10
2022-09-06T12:49:16.235Z,38.30
2022-09-06T12:52:19.175Z,38.40
2022-09-06T12:54:59.242Z,38.50
2022-09-06T12:57:54.185Z,38.60
2022-09-06T13:00:43.285Z,38.60
2022-09-06T13:03:56.172Z,38.70
2022-09-06T13:06:50.205Z,38.80
2022-09-06T13:09:32.288Z,38.80
2022-09-06T13:12:46.189Z,38.90
2022-09-06T13:15:31.343Z,39.10
2022-09-06T13:18:42.185Z,39.00
2022-09-06T13:21:34.276Z,39.30
2022-09-06T13:24:31.186Z,39.40
2022-09-06T13:27:31.346Z,39.50
2022-09-06T13:30:52.256Z,39.50
2022-09-06T13:33:33.271Z,39.60
2022-09-06T13:36:20.190Z,39.60
2022-09-06T13:39:03.347Z,39.80
2022-09-06T13:41:51.189Z,39.80
2022-09-06T13:44:39.255Z,39.90
2022-09-06T13:47:26.184Z,39.80
2022-09-06T13:50:06.227Z,39.90
2022-09-06T13:52:53.199Z,40.00
2022-09-06T13:55:55.176Z,40.00
2022-09-06T13:58:43.189Z,40.10
2022-09-06T14:01:23.329Z,40.20
2022-09-06T14:04:11.190Z,40.20
2022-09-06T14:06:51.361Z,40.30
2022-09-06T14:09:38.190Z,40.30
2022-09-06T14:12:18.257Z,40.40
2022-09-06T14:15:05.205Z,40.50
2022-09-06T14:17:46.725Z,40.50
2022-09-06T14:20:33.204Z,40.60
2022-09-06T14:23:21.195Z,40.70
2022-09-06T14:26:10.575Z,40.70
2022-09-06T14:28:50.224Z,40.90
2022-09-06T14:31:32.590Z,40.90
2022-09-06T14:34:19.197Z,41.00
2022-09-06T14:37:09.251Z,40.90
2022-09-06T14:39:51.244Z,41.00
2022-09-06T14:42:38.239Z,41.00
2022-09-06T14:45:18.217Z,41.10
2022-09-06T14:47:58.690Z,41.10
2022-09-06T14:50:45.214Z,41.10
2022-09-06T14:53:40.085Z,41.20
2022-09-06T14:56:27.208Z,41.10
2022-09-06T14:59:09.115Z,41.10
2022-09-06T15:01:56.250Z,41.10
2022-09-06T15:04:50.208Z,41.10
2022-09-06T15:07:38.120Z,41.10
2022-09-06T15:10:18.213Z,41.10
2022-09-06T15:13:08.378Z,41.10
2022-09-06T15:15:48.240Z,41.20
2022-09-06T15:18:35.241Z,41.20
2022-09-06T15:21:20.286Z,41.20
2022-09-06T15:24:11.678Z,41.20
2022-09-06T15:26:52.473Z,41.20
2022-09-06T15:29:39.210Z,41.30
2022-09-06T15:32:19.261Z,41.40
2022-09-06T15:35:07.213Z,41.40
2022-09-06T15:37:47.260Z,41.40
2022-09-06T15:40:34.221Z,41.40
2022-09-06T15:43:21.230Z,41.50
2022-09-06T15:46:15.310Z,41.50
2022-09-06T15:49:03.944Z,41.60
2022-09-06T15:51:46.607Z,41.50
2022-09-06T15:54:53.213Z,41.60
2022-09-06T15:57:40.239Z,41.60
2022-09-06T16:00:27.285Z,41.60
2022-09-06T16:03:07.244Z,41.70
2022-09-06T16:08:55.265Z,41.80
2022-09-06T16:11:43.338Z,41.80
2022-09-06T16:14:24.207Z,41.90
2022-09-06T16:17:04.804Z,42.10
2022-09-06T16:19:52.214Z,42.90
2022-09-06T16:22:39.326Z,41.90
2022-09-06T16:25:19.217Z,41.90
2022-09-06T16:28:06.269Z,42.00
2022-09-06T16:30:50.267Z,42.10
2022-09-06T16:33:39.213Z,42.10
2022-09-06T16:36:19.289Z,42.10
2022-09-06T16:39:06.224Z,42.20
2022-09-06T16:41:51.286Z,42.30
2022-09-06T16:44:38.221Z,42.30
2022-09-06T16:47:25.205Z,42.30
2022-09-06T16:50:12.224Z,42.50
2022-09-06T16:52:52.658Z,42.70
2022-09-06T16:55:44.238Z,42.80
2022-09-06T16:58:24.315Z,42.80
2022-09-06T17:01:11.314Z,42.80
2022-09-06T17:03:59.279Z,42.90
2022-09-06T17:06:40.224Z,42.90
2022-09-06T17:09:27.363Z,42.90
2022-09-06T17:12:07.250Z,43.00
2022-09-06T17:14:54.378Z,43.00
2022-09-06T17:17:34.238Z,43.10
2022-09-06T17:20:21.284Z,43.10
2022-09-06T17:23:01.239Z,43.10
2022-09-06T17:25:43.249Z,43.10
2022-09-06T17:28:30.252Z,43.20
2022-09-06T17:31:19.940Z,43.10
2022-09-06T17:34:02.363Z,43.20
2022-09-06T17:36:49.233Z,43.10
2022-09-06T17:39:29.574Z,43.10
2022-09-06T17:42:16.252Z,43.20
2022-09-06T17:45:03.224Z,43.20
2022-09-06T17:47:44.046Z,43.20
2022-09-06T17:50:30.243Z,43.20
2022-09-06T17:53:10.980Z,43.30
2022-09-06T17:55:58.260Z,43.40
2022-09-06T17:58:40.867Z,43.40
2022-09-06T18:01:28.289Z,43.30
2022-09-06T18:04:24.249Z,43.40
2022-09-06T18:07:04.815Z,43.30
2022-09-06T18:09:51.268Z,43.40
2022-09-06T18:12:38.983Z,43.40
2022-09-06T18:15:18.249Z,43.40
2022-09-06T18:18:05.231Z,43.50
2022-09-06T18:20:45.485Z,43.40
2022-09-06T18:23:32.246Z,43.40
2022-09-06T18:26:15.378Z,43.40
2022-09-06T18:29:02.253Z,43.40
2022-09-06T18:31:42.779Z,43.50
2022-09-06T18:34:29.242Z,43.50
2022-09-06T18:37:16.239Z,43.50
2022-09-06T18:40:03.561Z,43.50
2022-09-06T18:42:43.404Z,43.60
2022-09-06T18:45:30.455Z,43.60
2022-09-06T18:48:10.991Z,43.60
2022-09-06T18:50:59.848Z,43.50
2022-09-06T18:53:47.329Z,43.50
2022-09-06T18:56:35.540Z,43.50
2022-09-06T18:59:15.429Z,43.50
2022-09-06T19:02:02.351Z,43.50
2022-09-06T19:04:56.251Z,43.40
2022-09-06T19:07:43.249Z,43.40
2022-09-06T19:10:30.274Z,43.40
2022-09-06T19:13:17.257Z,43.40
2022-09-06T19:15:57.312Z,43.40
2022-09-06T19:18:45.280Z,43.50
2022-09-06T19:21:27.464Z,43.60
2022-09-06T19:24:16.281Z,43.60
2022-09-06T19:26:56.393Z,43.60
2022-09-06T19:29:43.248Z,43.70
2022-09-06T19:32:23.309Z,43.80
2022-09-06T19:35:10.253Z,43.60
2022-09-06T19:37:50.432Z,43.70
2022-09-06T19:40:37.392Z,43.70
2022-09-06T19:43:17.631Z,43.80
2022-09-06T19:46:08.262Z,43.90
2022-09-06T19:48:56.450Z,44.10
2022-09-06T19:51:43.278Z,44.00
2022-09-06T19:54:23.314Z,44.10
2022-09-06T19:57:10.290Z,44.50
2022-09-06T19:59:50.308Z,45.50
2022-09-06T20:02:37.316Z,44.50
2022-09-06T20:05:31.280Z,44.50
2022-09-06T20:08:18.269Z,44.60
2022-09-06T20:11:10.294Z,44.40
2022-09-06T20:13:57.321Z,44.30
2022-09-06T20:16:44.336Z,44.50
2022-09-06T20:19:31.322Z,44.60
2022-09-06T20:22:11.276Z,44.70
2022-09-06T20:24:51.839Z,44.80
2022-09-06T20:27:41.374Z,44.80
2022-09-06T20:30:32.432Z,44.80
2022-09-06T20:33:12.274Z,45.00
2022-09-06T20:36:02.913Z,45.00
2022-09-06T20:38:51.278Z,45.20
2022-09-06T20:41:38.309Z,45.20
2022-09-06T20:44:18.276Z,45.30
2022-09-06T20:47:05.303Z,45.40
2022-09-06T20:49:52.294Z,45.50
2022-09-06T20:52:32.753Z,45.50
2022-09-06T20:55:20.381Z,45.60
2022-09-06T20:58:07.385Z,45.70
2022-09-06T21:00:47.420Z,46.00
2022-09-06T21:03:27.810Z,46.10
2022-09-06T21:06:14.281Z,46.60
2022-09-06T21:09:02.348Z,46.90
2022-09-06T21:11:43.295Z,47.10
2022-09-06T21:14:30.269Z,46.80
2022-09-06T21:17:10.467Z,46.60
2022-09-06T21:19:57.266Z,46.60
2022-09-06T21:22:44.277Z,46.80
2022-09-06T21:25:24.768Z,46.70
2022-09-06T21:28:11.302Z,46.90
2022-09-06T21:31:08.551Z,46.90
2022-09-06T21:33:54.273Z,46.90
2022-09-06T21:36:43.298Z,46.80
2022-09-06T21:39:23.361Z,46.90
2022-09-06T21:42:10.308Z,46.80
2022-09-06T21:44:50.335Z,46.90
2022-09-06T21:47:38.305Z,46.70
2022-09-06T21:50:25.280Z,46.60
2022-09-06T21:53:12.329Z,46.50
2022-09-06T21:55:52.289Z,46.50
2022-09-06T21:58:33.349Z,46.30
2022-09-06T22:01:22.348Z,46.30
2022-09-06T22:04:17.285Z,46.30
2022-09-06T22:07:04.309Z,46.30
2022-09-06T22:09:44.393Z,46.10
2022-09-06T22:12:31.287Z,46.00
2022-09-06T22:15:18.292Z,46.00
2022-09-06T22:18:05.291Z,45.70
2022-09-06T22:20:52.293Z,45.70
2022-09-06T22:23:39.305Z,46.00
2022-09-06T22:26:26.316Z,46.30
2022-09-06T22:29:09.462Z,46.70
2022-09-06T22:31:56.338Z,47.20
2022-09-06T22:34:37.221Z,47.60
2022-09-06T22:37:25.301Z,48.00
2022-09-06T22:40:06.381Z,48.50
2022-09-06T22:42:53.314Z,48.50
2022-09-06T22:45:40.481Z,48.90
2022-09-06T22:48:20.314Z,49.40
2022-09-06T22:51:08.354Z,49.40
2022-09-06T22:53:48.297Z,49.60
2022-09-06T22:56:35.812Z,49.30
2022-09-06T22:59:15.314Z,49.30
2022-09-06T23:02:02.355Z,49.50
2022-09-06T23:04:42.354Z,49.70
2022-09-06T23:07:29.387Z,50.00
2022-09-06T23:10:09.294Z,50.20
2022-09-06T23:12:52.545Z,50.30
2022-09-06T23:15:39.307Z,50.60
2022-09-06T23:18:19.765Z,50.70
2022-09-06T23:21:06.307Z,52.00
2022-09-06T23:23:55.296Z,51.10
2022-09-06T23:26:37.470Z,52.30
2022-09-06T23:29:24.301Z,51.40
2022-09-06T23:32:04.372Z,51.70
2022-09-06T23:34:51.302Z,51.80
2022-09-06T23:37:31.373Z,52.30
2022-09-06T23:40:18.390Z,52.30
2022-09-06T23:43:05.309Z,52.80
2022-09-06T23:45:45.794Z,52.90
2022-09-06T23:48:32.452Z,54.10
2022-09-06T23:51:20.448Z,53.20
2022-09-06T23:54:01.314Z,53.30
2022-09-06T23:56:48.385Z,53.50
2022-09-06T23:59:28.320Z,53.70
